createdAt,value
2018-01-06T00:00:19.671Z,5.52
2018-01-06T00:01:28.473Z,5.52
2018-01-06T00:02:37.010Z,5.46
2018-01-06T00:03:45.548Z,5.46
2018-01-06T00:04:54.352Z,5.6
2018-01-06T00:06:02.887Z,5.55
2018-01-06T00:07:11.419Z,5.52
2018-01-06T00:08:20.485Z,5.54
2018-01-06T00:09:29.615Z,5.55
2018-01-06T00:10:38.152Z,5.51
2018-01-06T00:11:46.949Z,5.51
2018-01-06T00:12:55.484Z,5.52
2018-01-06T00:14:04.021Z,5.49
2018-01-06T00:15:13.083Z,5.49
2018-01-06T00:16:21.884Z,5.45
2018-01-06T00:17:30.685Z,5.51
2018-01-06T00:18:39.221Z,5.48
2018-01-06T00:19:47.755Z,5.44
2018-01-06T00:20:56.553Z,5.45
2018-01-06T00:22:05.093Z,5.51
2018-01-06T00:23:13.899Z,5.39
2018-01-06T00:24:22.720Z,5.42
2018-01-06T00:25:31.229Z,5.51
2018-01-06T00:26:40.028Z,5.48
2018-01-06T00:27:49.091Z,5.39
2018-01-06T00:28:57.892Z,5.42
2018-01-06T00:30:06.429Z,5.44
2018-01-06T00:31:14.964Z,5.37
2018-01-06T00:32:23.498Z,5.45
2018-01-06T00:33:32.296Z,5.41
2018-01-06T00:34:41.100Z,5.42
2018-01-06T00:35:50.072Z,5.39
2018-01-06T00:36:59.129Z,5.45
2018-01-06T00:38:07.664Z,5.45
2018-01-06T00:39:16.460Z,5.37
2018-01-06T00:40:24.992Z,5.41
2018-01-06T00:41:33.527Z,5.33
2018-01-06T00:42:42.854Z,5.44
2018-01-06T00:43:51.655Z,5.39
2018-01-06T00:45:00.180Z,5.36
2018-01-06T00:46:08.987Z,5.37
2018-01-06T00:47:17.515Z,5.36
2018-01-06T00:48:26.578Z,5.41
2018-01-06T00:49:35.911Z,5.36
2018-01-06T00:50:44.978Z,5.41
2018-01-06T00:51:54.037Z,5.42
2018-01-06T00:53:02.569Z,5.42
2018-01-06T00:54:11.368Z,5.37
2018-01-06T00:55:19.896Z,5.34
2018-01-06T00:56:28.428Z,5.39
2018-01-06T00:57:37.488Z,5.37
2018-01-06T00:58:46.023Z,5.33
2018-01-06T00:59:55.357Z,5.34
2018-01-06T01:01:04.154Z,5.37
2018-01-06T01:02:12.691Z,5.37
2018-01-06T01:03:21.224Z,5.34
2018-01-06T01:04:30.018Z,5.36
2018-01-06T01:05:38.545Z,5.45
2018-01-06T01:06:47.875Z,5.37
2018-01-06T01:07:56.675Z,5.45
2018-01-06T01:09:05.478Z,5.37
2018-01-06T01:10:14.278Z,5.41
2018-01-06T01:11:23.078Z,5.37
2018-01-06T01:12:32.145Z,5.44
2018-01-06T01:13:41.207Z,5.37
2018-01-06T01:14:49.735Z,5.41
2018-01-06T01:15:58.265Z,5.36
2018-01-06T01:17:07.060Z,5.41
2018-01-06T01:18:15.862Z,5.44
2018-01-06T01:19:24.395Z,5.42
2018-01-06T01:20:32.929Z,5.39
2018-01-06T01:21:41.735Z,5.41
2018-01-06T01:22:50.549Z,5.41
2018-01-06T01:23:59.613Z,5.39
2018-01-06T01:25:08.468Z,5.45
2018-01-06T01:26:17.268Z,5.36
2018-01-06T01:27:26.595Z,5.37
2018-01-06T01:28:35.396Z,5.42
2018-01-06T01:29:44.190Z,5.42
2018-01-06T01:30:52.721Z,5.44
2018-01-06T01:32:01.519Z,5.41
2018-01-06T01:33:10.314Z,5.39
2018-01-06T01:34:18.844Z,5.37
2018-01-06T01:35:27.382Z,5.39
2018-01-06T01:36:36.180Z,5.42
2018-01-06T01:37:44.976Z,5.42
2018-01-06T01:38:54.306Z,5.41
2018-01-06T01:40:02.838Z,5.34
2018-01-06T01:41:11.374Z,5.39
2018-01-06T01:42:20.439Z,5.36
2018-01-06T01:43:29.237Z,5.39
2018-01-06T01:44:37.769Z,5.39
2018-01-06T01:45:46.831Z,5.34
2018-01-06T01:46:55.891Z,5.37
2018-01-06T01:48:04.693Z,5.39
2018-01-06T01:49:13.221Z,5.41
2018-01-06T01:50:21.749Z,5.39
2018-01-06T01:51:30.551Z,5.33
2018-01-06T01:52:39.085Z,5.42
2018-01-06T01:53:47.883Z,5.37
2018-01-06T01:54:56.679Z,5.36
2018-01-06T01:56:05.488Z,5.28
2018-01-06T01:57:14.286Z,5.37
2018-01-06T01:58:22.818Z,5.31
2018-01-06T01:59:31.359Z,5.31
2018-01-06T02:00:40.426Z,5.31
2018-01-06T02:01:48.958Z,5.31
2018-01-06T02:02:57.484Z,5.26
2018-01-06T02:04:06.009Z,5.37
2018-01-06T02:05:14.809Z,5.39
2018-01-06T02:06:23.609Z,5.33
2018-01-06T02:07:32.417Z,5.39
2018-01-06T02:08:41.217Z,5.34
2018-01-06T02:09:50.014Z,5.42
2018-01-06T02:10:58.543Z,5.37
2018-01-06T02:12:07.338Z,5.31
2018-01-06T02:13:16.403Z,5.41
2018-01-06T02:14:25.202Z,5.39
2018-01-06T02:15:33.735Z,5.39
2018-01-06T02:16:43.333Z,5.42
2018-01-06T02:17:52.134Z,5.37
2018-01-06T02:19:01.199Z,5.36
2018-01-06T02:20:09.993Z,5.27
2018-01-06T02:21:18.522Z,5.34
2018-01-06T02:22:27.321Z,5.31
2018-01-06T02:23:36.389Z,5.34
2018-01-06T02:24:45.717Z,5.34
2018-01-06T02:25:54.517Z,5.21
2018-01-06T02:27:03.045Z,5.27
2018-01-06T02:28:12.104Z,5.2
2018-01-06T02:29:21.166Z,5.24
2018-01-06T02:30:29.688Z,5.27
2018-01-06T02:31:38.217Z,5.23
2018-01-06T02:32:46.754Z,5.24
2018-01-06T02:33:55.551Z,5.21
2018-01-06T02:35:04.345Z,5.16
2018-01-06T02:36:12.879Z,5.21
2018-01-06T02:37:21.675Z,5.18
2018-01-06T02:38:30.206Z,5.18
2018-01-06T02:39:38.733Z,5.15
2018-01-06T02:40:47.533Z,5.1
2018-01-06T02:41:56.326Z,5.15
2018-01-06T02:43:05.128Z,5.2
2018-01-06T02:44:13.927Z,5.08
2018-01-06T02:45:22.994Z,5.21
2018-01-06T02:46:32.049Z,5.1
2018-01-06T02:47:40.848Z,5.18
2018-01-06T02:48:49.645Z,5.13
2018-01-06T02:49:58.460Z,5.1
2018-01-06T02:51:06.991Z,5.02
2018-01-06T02:52:15.787Z,5.08
2018-01-06T02:53:24.588Z,5
2018-01-06T02:54:33.486Z,5.05
2018-01-06T02:55:42.019Z,5.05
2018-01-06T02:56:50.815Z,4.98
2018-01-06T02:58:00.160Z,5.06
2018-01-06T02:59:08.687Z,4.98
2018-01-06T03:00:17.753Z,5.05
2018-01-06T03:01:26.280Z,4.91
2018-01-06T03:02:35.338Z,4.97
2018-01-06T03:03:44.403Z,4.92
2018-01-06T03:04:53.468Z,4.97
2018-01-06T03:06:01.998Z,4.91
2018-01-06T03:07:10.794Z,4.9
2018-01-06T03:08:19.329Z,4.91
2018-01-06T03:09:27.857Z,4.94
2018-01-06T03:10:37.457Z,4.91
2018-01-06T03:11:46.255Z,4.97
2018-01-06T03:12:55.061Z,4.91
2018-01-06T03:14:04.118Z,4.95
2018-01-06T03:15:12.648Z,4.94
2018-01-06T03:16:21.450Z,4.94
2018-01-06T03:17:29.981Z,5
2018-01-06T03:18:39.045Z,4.94
2018-01-06T03:19:48.107Z,4.88
2018-01-06T03:20:57.172Z,5
2018-01-06T03:22:05.702Z,4.98
2018-01-06T03:23:14.232Z,4.94
2018-01-06T03:24:22.758Z,4.97
2018-01-06T03:25:31.290Z,5
2018-01-06T03:26:39.819Z,4.91
2018-01-06T03:27:48.883Z,4.92
2018-01-06T03:28:57.944Z,4.91
2018-01-06T03:30:06.483Z,4.9
2018-01-06T03:31:15.013Z,4.85
2018-01-06T03:32:23.818Z,4.84
2018-01-06T03:33:32.352Z,4.78
2018-01-06T03:34:41.147Z,4.78
2018-01-06T03:35:49.946Z,4.9
2018-01-06T03:36:58.742Z,4.95
2018-01-06T03:38:07.273Z,4.9
2018-01-06T03:39:16.342Z,4.87
2018-01-06T03:40:24.872Z,4.83
2018-01-06T03:41:33.407Z,4.83
2018-01-06T03:42:41.941Z,4.78
2018-01-06T03:43:50.740Z,4.75
2018-01-06T03:44:59.268Z,4.76
2018-01-06T03:46:08.063Z,4.78
2018-01-06T03:47:16.586Z,4.69
2018-01-06T03:48:25.114Z,4.65
2018-01-06T03:49:34.171Z,4.64
2018-01-06T03:50:42.702Z,4.69
2018-01-06T03:51:51.237Z,4.65
2018-01-06T03:53:00.034Z,4.65
2018-01-06T03:54:08.831Z,4.71
2018-01-06T03:55:17.893Z,4.65
2018-01-06T03:56:26.957Z,4.71
2018-01-06T03:57:35.490Z,4.74
2018-01-06T03:58:44.285Z,4.68
2018-01-06T03:59:52.808Z,4.65
2018-01-06T04:01:01.335Z,4.72
2018-01-06T04:02:10.416Z,4.6
2018-01-06T04:03:19.204Z,4.6
2018-01-06T04:04:27.737Z,4.6
2018-01-06T04:05:36.798Z,4.53
2018-01-06T04:06:45.866Z,4.6
2018-01-06T04:07:54.664Z,4.57
2018-01-06T04:09:03.194Z,4.5
2018-01-06T04:10:11.725Z,4.54
2018-01-06T04:11:20.252Z,4.48
2018-01-06T04:12:28.783Z,4.56
2018-01-06T04:13:37.856Z,4.53
2018-01-06T04:14:46.649Z,4.57
2018-01-06T04:15:55.180Z,4.51
2018-01-06T04:17:04.512Z,4.51
2018-01-06T04:18:13.303Z,4.53
2018-01-06T04:19:21.828Z,4.54
2018-01-06T04:20:30.625Z,4.51
2018-01-06T04:21:39.421Z,4.48
2018-01-06T04:22:47.952Z,4.5
2018-01-06T04:23:56.481Z,4.5
2018-01-06T04:25:05.279Z,4.51
2018-01-06T04:26:13.812Z,4.53
2018-01-06T04:27:22.604Z,4.53
2018-01-06T04:28:31.667Z,4.5
2018-01-06T04:29:40.732Z,4.53
2018-01-06T04:30:49.533Z,4.53
2018-01-06T04:31:58.335Z,4.53
2018-01-06T04:33:07.141Z,4.54
2018-01-06T04:34:16.209Z,4.58
2018-01-06T04:35:25.006Z,4.51
2018-01-06T04:36:34.335Z,4.58
2018-01-06T04:37:42.867Z,4.53
2018-01-06T04:38:51.661Z,4.54
2018-01-06T04:40:00.460Z,4.48
2018-01-06T04:41:08.992Z,4.46
2018-01-06T04:42:18.061Z,4.5
2018-01-06T04:43:26.855Z,4.48
2018-01-06T04:44:35.649Z,4.48
2018-01-06T04:45:44.180Z,4.47
2018-01-06T04:46:53.247Z,4.46
2018-01-06T04:48:02.573Z,4.36
2018-01-06T04:49:11.369Z,4.46
2018-01-06T04:50:20.439Z,4.4
2018-01-06T04:51:29.232Z,4.39
2018-01-06T04:52:38.025Z,4.4
2018-01-06T04:53:46.824Z,4.46
2018-01-06T04:54:55.619Z,4.36
2018-01-06T04:56:04.159Z,4.4
2018-01-06T04:57:12.959Z,4.42
2018-01-06T04:58:21.491Z,4.46
2018-01-06T04:59:30.554Z,4.4
2018-01-06T05:00:39.869Z,4.36
2018-01-06T05:01:48.398Z,4.36
2018-01-06T05:02:57.189Z,4.38
2018-01-06T05:04:06.251Z,4.33
2018-01-06T05:05:15.047Z,4.46
2018-01-06T05:06:24.375Z,4.35
2018-01-06T05:07:33.171Z,4.39
2018-01-06T05:08:41.970Z,4.38
2018-01-06T05:09:50.768Z,4.38
2018-01-06T05:10:59.566Z,4.35
2018-01-06T05:12:08.362Z,4.36
2018-01-06T05:13:17.155Z,4.3
2018-01-06T05:14:25.683Z,4.29
2018-01-06T05:15:34.218Z,4.24
2018-01-06T05:16:42.748Z,4.33
2018-01-06T05:17:51.553Z,4.28
2018-01-06T05:19:00.882Z,4.18
2018-01-06T05:20:10.215Z,4.29
2018-01-06T05:21:18.746Z,4.32
2018-01-06T05:22:27.270Z,4.3
2018-01-06T05:23:36.071Z,4.21
2018-01-06T05:24:44.602Z,4.32
2018-01-06T05:25:53.666Z,4.26
2018-01-06T05:27:02.451Z,4.29
2018-01-06T05:28:11.251Z,4.33
2018-01-06T05:29:20.055Z,4.29
2018-01-06T05:30:29.437Z,4.32
2018-01-06T05:31:37.966Z,4.33
2018-01-06T05:32:46.500Z,4.3
2018-01-06T05:33:55.299Z,4.29
2018-01-06T05:35:04.098Z,4.33
2018-01-06T05:36:12.631Z,4.36
2018-01-06T05:37:21.424Z,4.46
2018-01-06T05:38:30.557Z,4.38
2018-01-06T05:39:39.622Z,4.44
2018-01-06T05:40:48.951Z,4.51
2018-01-06T05:41:57.478Z,4.48
2018-01-06T05:43:06.276Z,4.53
2018-01-06T05:44:15.346Z,4.6
2018-01-06T05:45:24.410Z,4.61
2018-01-06T05:46:32.937Z,4.66
2018-01-06T05:47:41.744Z,4.65
2018-01-06T05:48:50.546Z,4.68
2018-01-06T05:49:59.340Z,4.65
2018-01-06T05:51:07.868Z,4.78
2018-01-06T05:52:16.666Z,4.76
2018-01-06T05:53:25.198Z,4.75
2018-01-06T05:54:34.533Z,4.84
2018-01-06T05:55:43.333Z,4.87
2018-01-06T05:56:51.863Z,4.84
2018-01-06T05:58:00.659Z,4.92
2018-01-06T05:59:09.457Z,4.91
2018-01-06T06:00:17.989Z,4.88
2018-01-06T06:01:27.054Z,4.94
2018-01-06T06:02:36.121Z,4.94
2018-01-06T06:03:44.915Z,4.97
2018-01-06T06:04:53.972Z,4.88
2018-01-06T06:06:02.768Z,4.91
2018-01-06T06:07:11.305Z,4.94
2018-01-06T06:08:20.104Z,4.94
2018-01-06T06:09:28.895Z,4.9
2018-01-06T06:10:37.466Z,4.85
2018-01-06T06:11:45.993Z,4.91
2018-01-06T06:12:55.327Z,4.94
2018-01-06T06:14:03.855Z,4.9
2018-01-06T06:15:12.387Z,4.87
2018-01-06T06:16:21.981Z,4.98
2018-01-06T06:17:31.048Z,4.94
2018-01-06T06:18:39.849Z,4.97
2018-01-06T06:19:48.648Z,4.97
2018-01-06T06:20:57.969Z,4.97
2018-01-06T06:22:07.297Z,5.06
2018-01-06T06:23:16.089Z,5.09
2018-01-06T06:24:25.464Z,5.05
2018-01-06T06:25:34.263Z,5.03
2018-01-06T06:26:43.059Z,5.18
2018-01-06T06:27:51.589Z,5.21
2018-01-06T06:29:00.121Z,5.16
2018-01-06T06:30:08.921Z,5.12
2018-01-06T06:31:17.717Z,5.21
2018-01-06T06:32:26.906Z,5.13
2018-01-06T06:33:35.441Z,5.18
2018-01-06T06:34:44.240Z,5.13
2018-01-06T06:35:52.770Z,5.2
2018-01-06T06:37:01.577Z,5.23
2018-01-06T06:38:10.108Z,5.23
2018-01-06T06:39:18.648Z,5.23
2018-01-06T06:40:27.712Z,5.23
2018-01-06T06:41:36.506Z,5.23
2018-01-06T06:42:45.351Z,5.33
2018-01-06T06:43:53.881Z,5.36
2018-01-06T06:45:03.216Z,5.31
2018-01-06T06:46:12.281Z,5.31
2018-01-06T06:47:21.344Z,5.36
2018-01-06T06:48:30.134Z,5.34
2018-01-06T06:49:38.931Z,5.21
2018-01-06T06:50:47.727Z,5.21
2018-01-06T06:51:56.259Z,5.26
2018-01-06T06:53:04.791Z,5.31
2018-01-06T06:54:14.125Z,5.23
2018-01-06T06:55:22.919Z,5.24
2018-01-06T06:56:32.252Z,5.26
2018-01-06T06:57:41.626Z,5.21
2018-01-06T06:58:50.693Z,5.24
2018-01-06T06:59:59.495Z,5.23
2018-01-06T07:01:08.558Z,5.24
2018-01-06T07:02:17.351Z,5.23
2018-01-06T07:03:26.151Z,5.26
2018-01-06T07:04:34.955Z,5.3
2018-01-06T07:05:43.748Z,5.33
2018-01-06T07:06:52.297Z,5.3
2018-01-06T07:08:01.098Z,5.39
2018-01-06T07:09:09.895Z,5.34
2018-01-06T07:10:18.704Z,5.31
2018-01-06T07:11:27.768Z,5.34
2018-01-06T07:12:36.300Z,5.41
2018-01-06T07:13:45.092Z,5.37
2018-01-06T07:14:53.888Z,5.41
2018-01-06T07:16:02.421Z,5.39
2018-01-06T07:17:11.224Z,5.37
2018-01-06T07:18:19.754Z,5.48
2018-01-06T07:19:28.552Z,5.37
2018-01-06T07:20:37.348Z,5.37
2018-01-06T07:21:45.879Z,5.51
2018-01-06T07:22:54.670Z,5.49
2018-01-06T07:24:03.779Z,5.51
2018-01-06T07:25:12.844Z,5.54
2018-01-06T07:26:21.379Z,5.52
2018-01-06T07:27:29.908Z,5.48
2018-01-06T07:28:38.434Z,5.54
2018-01-06T07:29:47.230Z,5.51
2018-01-06T07:30:56.551Z,5.59
2018-01-06T07:32:05.347Z,5.49
2018-01-06T07:33:14.144Z,5.54
2018-01-06T07:34:22.676Z,5.62
2018-01-06T07:35:32.025Z,5.49
2018-01-06T07:36:40.823Z,5.62
2018-01-06T07:37:49.612Z,5.48
2018-01-06T07:38:58.678Z,5.51
2018-01-06T07:40:07.214Z,5.54
2018-01-06T07:41:16.310Z,5.54
2018-01-06T07:42:25.107Z,5.49
2018-01-06T07:43:33.905Z,5.49
2018-01-06T07:44:42.699Z,5.54
2018-01-06T07:45:51.770Z,5.57
2018-01-06T07:47:00.566Z,5.54
2018-01-06T07:48:09.629Z,5.49
2018-01-06T07:49:18.687Z,5.55
2018-01-06T07:50:28.011Z,5.48
2018-01-06T07:51:37.158Z,5.54
2018-01-06T07:52:45.960Z,5.49
2018-01-06T07:53:55.024Z,5.52
2018-01-06T07:55:03.821Z,5.57
2018-01-06T07:56:12.901Z,5.57
2018-01-06T07:57:22.226Z,5.51
2018-01-06T07:58:30.754Z,5.52
2018-01-06T07:59:39.284Z,5.55
2018-01-06T08:00:48.084Z,5.48
2018-01-06T08:01:56.611Z,5.6
2018-01-06T08:03:05.140Z,5.54
2018-01-06T08:04:13.943Z,5.48
2018-01-06T08:05:22.475Z,5.48
2018-01-06T08:06:31.275Z,5.49
2018-01-06T08:07:40.352Z,5.51
2018-01-06T08:08:49.203Z,5.48
2018-01-06T08:09:58.004Z,5.51
2018-01-06T08:11:06.536Z,5.51
2018-01-06T08:12:15.600Z,5.49
2018-01-06T08:13:24.668Z,5.39
2018-01-06T08:14:33.463Z,5.37
2018-01-06T08:15:42.266Z,5.41
2018-01-06T08:16:51.000Z,5.37
2018-01-06T08:18:00.505Z,5.41
2018-01-06T08:19:09.363Z,5.42
2018-01-06T08:20:18.160Z,5.37
2018-01-06T08:21:26.957Z,5.37
2018-01-06T08:22:35.752Z,5.37
2018-01-06T08:23:44.546Z,5.42
2018-01-06T08:24:53.071Z,5.39
2018-01-06T08:26:01.873Z,5.39
2018-01-06T08:27:10.676Z,5.39
2018-01-06T08:28:19.205Z,5.33
2018-01-06T08:29:28.457Z,5.41
2018-01-06T08:30:37.521Z,5.41
2018-01-06T08:31:46.316Z,5.42
2018-01-06T08:32:55.114Z,5.48
2018-01-06T08:34:03.646Z,5.52
2018-01-06T08:35:12.178Z,5.51
2018-01-06T08:36:20.724Z,5.51
2018-01-06T08:37:29.525Z,5.49
2018-01-06T08:38:38.323Z,5.55
2018-01-06T08:39:46.856Z,5.6
2018-01-06T08:40:55.389Z,5.51
2018-01-06T08:42:04.456Z,5.62
2018-01-06T08:43:13.530Z,5.57
2018-01-06T08:44:22.359Z,5.62
2018-01-06T08:45:30.867Z,5.6
2018-01-06T08:46:39.397Z,5.62
2018-01-06T08:47:47.928Z,5.67
2018-01-06T08:48:56.459Z,5.7
2018-01-06T08:50:05.530Z,5.63
2018-01-06T08:51:14.868Z,5.66
2018-01-06T08:52:23.403Z,5.67
2018-01-06T08:53:32.207Z,5.64
2018-01-06T08:54:40.738Z,5.7
2018-01-06T08:55:49.269Z,5.63
2018-01-06T08:56:57.805Z,5.66
2018-01-06T08:58:06.607Z,5.66
2018-01-06T08:59:15.405Z,5.67
2018-01-06T09:00:24.202Z,5.75
2018-01-06T09:01:32.735Z,5.75
2018-01-06T09:02:42.069Z,5.8
2018-01-06T09:03:50.875Z,5.78
2018-01-06T09:04:59.936Z,5.72
2018-01-06T09:06:08.734Z,5.67
2018-01-06T09:07:17.531Z,5.67
2018-01-06T09:08:26.333Z,5.67
2018-01-06T09:09:35.658Z,5.64
2018-01-06T09:10:44.470Z,5.62
2018-01-06T09:11:52.997Z,5.51
2018-01-06T09:13:01.526Z,5.52
2018-01-06T09:14:10.060Z,5.52
2018-01-06T09:15:18.590Z,5.55
2018-01-06T09:16:27.385Z,5.59
2018-01-06T09:17:36.183Z,5.57
2018-01-06T09:18:45.351Z,5.66
2018-01-06T09:19:54.141Z,5.69
2018-01-06T09:21:02.942Z,5.78
2018-01-06T09:22:11.745Z,5.82
2018-01-06T09:23:20.542Z,5.84
2018-01-06T09:24:29.864Z,5.84
2018-01-06T09:25:38.398Z,5.89
2018-01-06T09:26:47.196Z,5.99
2018-01-06T09:27:55.726Z,6.09
2018-01-06T09:29:04.524Z,6.07
2018-01-06T09:30:13.328Z,6.18
2018-01-06T09:31:22.124Z,6.21
2018-01-06T09:32:30.654Z,6.24
2018-01-06T09:33:39.451Z,6.15
2018-01-06T09:34:48.256Z,6.25
2018-01-06T09:35:57.319Z,6.28
2018-01-06T09:37:06.119Z,6.26
2018-01-06T09:38:15.183Z,6.33
2018-01-06T09:39:24.519Z,6.42
2018-01-06T09:40:33.557Z,6.43
2018-01-06T09:41:42.091Z,6.36
2018-01-06T09:42:50.907Z,6.55
2018-01-06T09:43:59.909Z,6.6
2018-01-06T09:45:08.444Z,6.58
2018-01-06T09:46:17.519Z,6.55
2018-01-06T09:47:26.316Z,6.54
2018-01-06T09:48:35.112Z,6.6
2018-01-06T09:49:43.912Z,6.64
2018-01-06T09:50:53.469Z,6.64
2018-01-06T09:52:02.000Z,6.68
2018-01-06T09:53:10.800Z,6.72
2018-01-06T09:54:19.863Z,6.76
2018-01-06T09:55:28.395Z,6.75
2018-01-06T09:56:37.193Z,6.8
2018-01-06T09:57:46.253Z,6.7
2018-01-06T09:58:55.054Z,6.76
2018-01-06T10:00:03.850Z,6.73
2018-01-06T10:01:12.632Z,6.8
2018-01-06T10:02:21.163Z,6.78
2018-01-06T10:03:29.694Z,6.73
2018-01-06T10:04:38.762Z,6.78
2018-01-06T10:05:47.567Z,6.7
2018-01-06T10:06:56.354Z,6.78
2018-01-06T10:08:05.415Z,6.75
2018-01-06T10:09:14.484Z,6.75
2018-01-06T10:10:23.012Z,6.75
2018-01-06T10:11:31.809Z,6.79
2018-01-06T10:12:40.602Z,6.82
2018-01-06T10:13:49.400Z,6.8
2018-01-06T10:14:58.461Z,6.97
2018-01-06T10:16:07.801Z,6.91
2018-01-06T10:17:16.594Z,7
2018-01-06T10:18:25.119Z,7
2018-01-06T10:19:33.650Z,6.94
2018-01-06T10:20:42.184Z,6.93
2018-01-06T10:21:50.717Z,6.95
2018-01-06T10:22:59.251Z,6.95
2018-01-06T10:24:08.047Z,6.97
2018-01-06T10:25:16.838Z,6.93
2018-01-06T10:26:25.634Z,7.03
2018-01-06T10:27:34.704Z,7.09
2018-01-06T10:28:43.234Z,7.03
2018-01-06T10:29:52.033Z,7.01
2018-01-06T10:31:00.827Z,7.09
2018-01-06T10:32:09.622Z,7.13
2018-01-06T10:33:18.425Z,7.01
2018-01-06T10:34:27.227Z,6.98
2018-01-06T10:35:36.032Z,7.13
2018-01-06T10:36:44.904Z,7.19
2018-01-06T10:37:54.160Z,7.19
2018-01-06T10:39:03.229Z,7.11
2018-01-06T10:40:11.768Z,7.18
2018-01-06T10:41:20.300Z,7.12
2018-01-06T10:42:29.104Z,7.22
2018-01-06T10:43:37.907Z,7.21
2018-01-06T10:44:46.441Z,7.19
2018-01-06T10:45:54.978Z,7.18
2018-01-06T10:47:03.510Z,7.18
2018-01-06T10:48:12.041Z,7.13
2018-01-06T10:49:20.840Z,7.27
2018-01-06T10:50:29.644Z,7.23
2018-01-06T10:51:38.973Z,7.27
2018-01-06T10:52:47.764Z,7.23
2018-01-06T10:53:56.565Z,7.15
2018-01-06T10:55:05.362Z,7.16
2018-01-06T10:56:14.176Z,7.13
2018-01-06T10:57:23.237Z,7.18
2018-01-06T10:58:32.038Z,7.23
2018-01-06T10:59:40.827Z,7.23
2018-01-06T11:00:49.463Z,7.27
2018-01-06T11:01:58.260Z,7.22
2018-01-06T11:03:07.063Z,7.19
2018-01-06T11:04:15.622Z,7.23
2018-01-06T11:05:24.132Z,7.23
2018-01-06T11:06:32.668Z,7.19
2018-01-06T11:07:41.477Z,7.22
2018-01-06T11:08:50.013Z,7.33
2018-01-06T11:09:58.548Z,7.22
2018-01-06T11:11:07.396Z,7.31
2018-01-06T11:12:16.191Z,7.23
2018-01-06T11:13:25.528Z,7.22
2018-01-06T11:14:34.325Z,7.21
2018-01-06T11:15:42.856Z,7.23
2018-01-06T11:16:51.656Z,7.22
2018-01-06T11:18:00.461Z,7.23
2018-01-06T11:19:08.995Z,7.26
2018-01-06T11:20:17.796Z,7.29
2018-01-06T11:21:26.599Z,7.34
2018-01-06T11:22:35.135Z,7.37
2018-01-06T11:23:44.195Z,7.31
2018-01-06T11:24:52.992Z,7.44
2018-01-06T11:26:01.522Z,7.45
2018-01-06T11:27:10.058Z,7.47
2018-01-06T11:28:18.855Z,7.36
2018-01-06T11:29:27.654Z,7.41
2018-01-06T11:30:36.185Z,7.34
2018-01-06T11:31:44.717Z,7.48
2018-01-06T11:32:53.510Z,7.47
2018-01-06T11:34:02.312Z,7.54
2018-01-06T11:35:11.384Z,7.51
2018-01-06T11:36:20.186Z,7.49
2018-01-06T11:37:28.722Z,7.49
2018-01-06T11:38:37.254Z,7.54
2018-01-06T11:39:46.318Z,7.73
2018-01-06T11:40:55.654Z,7.61
2018-01-06T11:42:04.722Z,7.71
2018-01-06T11:43:13.255Z,7.68
2018-01-06T11:44:21.789Z,7.78
2018-01-06T11:45:30.592Z,7.8
2018-01-06T11:46:39.389Z,7.83
2018-01-06T11:47:48.450Z,7.82
2018-01-06T11:48:56.983Z,7.82
2018-01-06T11:50:05.780Z,7.85
2018-01-06T11:51:14.313Z,7.85
2018-01-06T11:52:23.116Z,7.88
2018-01-06T11:53:31.648Z,7.89
2018-01-06T11:54:40.715Z,7.83
2018-01-06T11:55:49.779Z,7.82
2018-01-06T11:56:58.573Z,7.88
2018-01-06T11:58:07.376Z,7.88
2018-01-06T11:59:16.177Z,7.93
2018-01-06T12:00:24.977Z,7.92
2018-01-06T12:01:33.777Z,7.82
2018-01-06T12:02:42.311Z,7.96
2018-01-06T12:03:51.113Z,7.96
2018-01-06T12:04:59.919Z,7.98
2018-01-06T12:06:09.286Z,8.04
2018-01-06T12:07:17.812Z,8.01
2018-01-06T12:08:27.147Z,8.04
2018-01-06T12:09:36.216Z,8.01
2018-01-06T12:10:45.055Z,8.03
2018-01-06T12:11:53.590Z,8.01
2018-01-06T12:13:02.120Z,8.03
2018-01-06T12:14:10.916Z,7.96
2018-01-06T12:15:19.446Z,8.03
2018-01-06T12:16:27.974Z,8.03
2018-01-06T12:17:36.773Z,8.03
2018-01-06T12:18:45.307Z,8.04
2018-01-06T12:19:54.379Z,8.09
2018-01-06T12:21:02.912Z,8.04
2018-01-06T12:22:12.249Z,8.06
2018-01-06T12:23:22.760Z,8.04
2018-01-06T12:24:31.566Z,8.07
2018-01-06T12:25:40.365Z,8.01
2018-01-06T12:26:49.436Z,8.04
2018-01-06T12:27:58.238Z,8.21
2018-01-06T12:29:06.771Z,8.1
2018-01-06T12:30:15.842Z,8.16
2018-01-06T12:31:24.638Z,8.21
2018-01-06T12:32:33.439Z,8.14
2018-01-06T12:33:41.967Z,8.1
2018-01-06T12:34:50.762Z,8.09
2018-01-06T12:35:59.565Z,8.17
2018-01-06T12:37:08.632Z,8.16
2018-01-06T12:38:17.433Z,8.22
2018-01-06T12:39:26.234Z,8.21
2018-01-06T12:40:34.762Z,8.22
2018-01-06T12:41:43.830Z,8.24
2018-01-06T12:42:52.889Z,8.21
2018-01-06T12:44:01.952Z,8.16
2018-01-06T12:45:10.484Z,8.25
2018-01-06T12:46:19.287Z,8.26
2018-01-06T12:47:28.359Z,8.28
2018-01-06T12:48:37.152Z,8.25
2018-01-06T12:49:45.682Z,8.22
2018-01-06T12:50:54.478Z,8.19
2018-01-06T12:52:04.768Z,8.25
2018-01-06T12:53:15.068Z,8.25
2018-01-06T12:54:23.868Z,8.26
2018-01-06T12:55:32.672Z,8.24
2018-01-06T12:56:41.483Z,8.34
2018-01-06T12:57:50.272Z,8.29
2018-01-06T12:58:59.066Z,8.35
2018-01-06T13:00:08.135Z,8.34
2018-01-06T13:01:16.670Z,8.39
2018-01-06T13:02:25.467Z,8.4
2018-01-06T13:03:34.801Z,8.36
2018-01-06T13:04:43.602Z,8.35
2018-01-06T13:05:52.398Z,8.34
2018-01-06T13:07:01.212Z,8.34
2018-01-06T13:08:10.008Z,8.36
2018-01-06T13:09:18.547Z,8.34
2018-01-06T13:10:27.345Z,8.32
2018-01-06T13:11:36.146Z,8.35
2018-01-06T13:12:45.232Z,8.36
2018-01-06T13:13:54.294Z,8.34
2018-01-06T13:15:03.094Z,8.32
2018-01-06T13:16:11.895Z,8.43
2018-01-06T13:17:20.708Z,8.35
2018-01-06T13:18:29.243Z,8.36
2018-01-06T13:19:38.567Z,8.34
2018-01-06T13:20:47.100Z,8.31
2018-01-06T13:21:56.173Z,8.24
2018-01-06T13:23:04.979Z,8.21
2018-01-06T13:24:13.781Z,8.17
2018-01-06T13:25:22.840Z,8.16
2018-01-06T13:26:31.641Z,8.09
2018-01-06T13:27:40.173Z,8.16
2018-01-06T13:28:48.994Z,8.17
2018-01-06T13:29:57.794Z,8.16
2018-01-06T13:31:06.355Z,8.14
2018-01-06T13:32:15.134Z,8.17
2018-01-06T13:33:24.243Z,8.11
2018-01-06T13:34:33.039Z,8.1
2018-01-06T13:35:41.573Z,8.11
2018-01-06T13:36:50.634Z,8.09
2018-01-06T13:37:59.709Z,8.22
2018-01-06T13:39:08.508Z,8.09
2018-01-06T13:40:17.033Z,8.14
2018-01-06T13:41:26.088Z,8.04
2018-01-06T13:42:34.622Z,8.09
2018-01-06T13:43:43.412Z,8.17
2018-01-06T13:44:51.950Z,8.04
2018-01-06T13:46:00.753Z,8.06
2018-01-06T13:47:09.284Z,8.01
2018-01-06T13:48:18.352Z,7.99
2018-01-06T13:49:27.412Z,8.04
2018-01-06T13:50:36.209Z,8.04
2018-01-06T13:51:45.272Z,8.03
2018-01-06T13:52:53.809Z,7.99
2018-01-06T13:54:02.343Z,8.04
2018-01-06T13:55:11.145Z,8.01
2018-01-06T13:56:19.933Z,7.96
2018-01-06T13:57:28.735Z,8.01
2018-01-06T13:58:37.264Z,8.06
2018-01-06T13:59:46.086Z,8.03
2018-01-06T14:00:54.621Z,7.92
2018-01-06T14:02:03.678Z,7.93
2018-01-06T14:03:12.212Z,7.92
2018-01-06T14:04:20.744Z,7.86
2018-01-06T14:05:29.546Z,7.88
2018-01-06T14:06:38.876Z,7.85
2018-01-06T14:07:47.673Z,7.78
2018-01-06T14:08:57.272Z,7.89
2018-01-06T14:10:06.071Z,7.78
2018-01-06T14:11:14.605Z,7.85
2018-01-06T14:12:23.694Z,7.82
2018-01-06T14:13:32.227Z,7.88
2018-01-06T14:14:40.754Z,7.8
2018-01-06T14:15:49.345Z,7.88
2018-01-06T14:16:58.138Z,7.88
2018-01-06T14:18:06.937Z,7.8
2018-01-06T14:19:16.006Z,7.73
2018-01-06T14:20:24.535Z,7.83
2018-01-06T14:21:33.597Z,7.71
2018-01-06T14:22:42.148Z,7.7
2018-01-06T14:23:50.946Z,7.73
2018-01-06T14:24:59.748Z,7.71
2018-01-06T14:26:08.807Z,7.75
2018-01-06T14:27:17.872Z,7.71
2018-01-06T14:28:26.404Z,7.73
2018-01-06T14:29:35.203Z,7.73
2018-01-06T14:30:43.739Z,7.73
2018-01-06T14:31:53.138Z,7.75
2018-01-06T14:33:01.877Z,7.71
2018-01-06T14:34:10.410Z,7.68
2018-01-06T14:35:18.942Z,7.7
2018-01-06T14:36:27.734Z,7.71
2018-01-06T14:37:36.536Z,7.75
2018-01-06T14:38:45.658Z,7.75
2018-01-06T14:39:54.457Z,7.67
2018-01-06T14:41:03.255Z,7.64
2018-01-06T14:42:12.323Z,7.63
2018-01-06T14:43:21.123Z,7.55
2018-01-06T14:44:29.655Z,7.61
2018-01-06T14:45:38.975Z,7.63
2018-01-06T14:46:47.508Z,7.55
2018-01-06T14:47:56.306Z,7.56
2018-01-06T14:49:04.835Z,7.54
2018-01-06T14:50:13.898Z,7.55
2018-01-06T14:51:22.432Z,7.48
2018-01-06T14:52:30.964Z,7.52
2018-01-06T14:53:40.029Z,7.44
2018-01-06T14:54:48.563Z,7.41
2018-01-06T14:55:57.632Z,7.37
2018-01-06T14:57:06.703Z,7.39
2018-01-06T14:58:15.235Z,7.33
2018-01-06T14:59:24.291Z,7.39
2018-01-06T15:00:32.820Z,7.37
2018-01-06T15:01:41.612Z,7.34
2018-01-06T15:02:50.150Z,7.36
2018-01-06T15:03:59.215Z,7.44
2018-01-06T15:05:08.282Z,7.39
2018-01-06T15:06:17.088Z,7.4
2018-01-06T15:07:25.620Z,7.4
2018-01-06T15:08:34.149Z,7.37
2018-01-06T15:09:43.215Z,7.4
2018-01-06T15:10:52.546Z,7.44
2018-01-06T15:12:01.079Z,7.39
2018-01-06T15:13:09.871Z,7.41
2018-01-06T15:14:18.947Z,7.39
2018-01-06T15:15:28.012Z,7.37
2018-01-06T15:16:36.546Z,7.44
2018-01-06T15:17:45.341Z,7.39